sensor_id;sensor_type;location;lat;lon;timestamp;P1;durP1;ratioP1;P2;durP2;ratioP2
37851;SDS011;23691;52.486;4.650;2022-10-31T00:01:19;7.60;;;1.70;;
37851;SDS011;23691;52.486;4.650;2022-10-31T00:03:52;9.10;;;1.90;;
37851;SDS011;23691;52.486;4.650;2022-10-31T00:06:20;9.48;;;2.00;;
37851;SDS011;23691;52.486;4.650;2022-10-31T00:08:46;9.77;;;2.17;;
37851;SDS011;23691;52.486;4.650;2022-10-31T00:11:13;7.13;;;2.03;;
37851;SDS011;23691;52.486;4.650;2022-10-31T00:13:38;10.13;;;1.98;;
37851;SDS011;23691;52.486;4.650;2022-10-31T00:16:04;9.77;;;2.10;;
37851;SDS011;23691;52.486;4.650;2022-10-31T00:18:30;7.63;;;1.80;;
37851;SDS011;23691;52.486;4.650;2022-10-31T00:21:02;7.47;;;2.08;;
37851;SDS011;23691;52.486;4.650;2022-10-31T00:23:28;10.65;;;2.03;;
37851;SDS011;23691;52.486;4.650;2022-10-31T00:25:53;8.57;;;2.05;;
37851;SDS011;23691;52.486;4.650;2022-10-31T00:28:19;8.15;;;2.20;;
37851;SDS011;23691;52.486;4.650;2022-10-31T00:30:44;7.88;;;1.98;;
37851;SDS011;23691;52.486;4.650;2022-10-31T00:33:10;9.40;;;1.92;;
37851;SDS011;23691;52.486;4.650;2022-10-31T00:35:35;10.70;;;2.38;;
37851;SDS011;23691;52.486;4.650;2022-10-31T00:38:01;12.52;;;2.00;;
37851;SDS011;23691;52.486;4.650;2022-10-31T00:40:26;9.43;;;2.00;;
37851;SDS011;23691;52.486;4.650;2022-10-31T00:42:52;7.75;;;1.90;;
37851;SDS011;23691;52.486;4.650;2022-10-31T00:47:45;8.15;;;1.98;;
37851;SDS011;23691;52.486;4.650;2022-10-31T00:50:11;8.30;;;2.25;;
37851;SDS011;23691;52.486;4.650;2022-10-31T00:52:39;9.63;;;2.20;;
37851;SDS011;23691;52.486;4.650;2022-10-31T00:57:30;7.65;;;2.13;;
37851;SDS011;23691;52.486;4.650;2022-10-31T01:02:23;7.95;;;2.28;;
37851;SDS011;23691;52.486;4.650;2022-10-31T01:04:48;7.55;;;2.15;;
37851;SDS011;23691;52.486;4.650;2022-10-31T01:07:14;7.60;;;2.05;;
37851;SDS011;23691;52.486;4.650;2022-10-31T01:09:39;9.18;;;2.10;;
37851;SDS011;23691;52.486;4.650;2022-10-31T01:12:05;9.38;;;2.10;;
37851;SDS011;23691;52.486;4.650;2022-10-31T01:14:31;8.52;;;2.30;;
37851;SDS011;23691;52.486;4.650;2022-10-31T01:16:56;9.68;;;2.65;;
37851;SDS011;23691;52.486;4.650;2022-10-31T01:19:21;10.30;;;2.72;;
37851;SDS011;23691;52.486;4.650;2022-10-31T01:21:47;7.90;;;2.80;;
37851;SDS011;23691;52.486;4.650;2022-10-31T01:24:12;9.02;;;2.60;;
37851;SDS011;23691;52.486;4.650;2022-10-31T01:26:38;9.23;;;2.83;;
37851;SDS011;23691;52.486;4.650;2022-10-31T01:29:05;8.52;;;2.70;;
37851;SDS011;23691;52.486;4.650;2022-10-31T01:34:02;8.20;;;2.50;;
37851;SDS011;23691;52.486;4.650;2022-10-31T01:36:29;10.05;;;2.80;;
37851;SDS011;23691;52.486;4.650;2022-10-31T01:38:58;9.43;;;2.58;;
37851;SDS011;23691;52.486;4.650;2022-10-31T01:41:27;8.57;;;2.78;;
37851;SDS011;23691;52.486;4.650;2022-10-31T01:43:56;8.85;;;2.80;;
37851;SDS011;23691;52.486;4.650;2022-10-31T01:46:31;7.60;;;3.05;;
37851;SDS011;23691;52.486;4.650;2022-10-31T01:49:01;9.75;;;3.35;;
37851;SDS011;23691;52.486;4.650;2022-10-31T01:51:32;9.68;;;3.10;;
37851;SDS011;23691;52.486;4.650;2022-10-31T01:54:01;8.88;;;3.00;;
37851;SDS011;23691;52.486;4.650;2022-10-31T01:56:31;8.57;;;3.30;;
37851;SDS011;23691;52.486;4.650;2022-10-31T01:59:01;10.70;;;3.42;;
37851;SDS011;23691;52.486;4.650;2022-10-31T02:01:31;8.70;;;3.42;;
37851;SDS011;23691;52.486;4.650;2022-10-31T02:03:56;8.77;;;3.92;;
37851;SDS011;23691;52.486;4.650;2022-10-31T02:08:57;10.93;;;4.70;;
37851;SDS011;23691;52.486;4.650;2022-10-31T02:11:26;12.13;;;4.38;;
37851;SDS011;23691;52.486;4.650;2022-10-31T02:13:53;9.27;;;4.32;;
37851;SDS011;23691;52.486;4.650;2022-10-31T02:16:19;12.10;;;4.50;;
37851;SDS011;23691;52.486;4.650;2022-10-31T02:18:45;10.85;;;4.65;;
37851;SDS011;23691;52.486;4.650;2022-10-31T02:30:12;15.32;;;4.70;;
37851;SDS011;23691;52.486;4.650;2022-10-31T02:35:36;10.98;;;5.05;;
37851;SDS011;23691;52.486;4.650;2022-10-31T02:38:24;9.55;;;4.90;;
37851;SDS011;23691;52.486;4.650;2022-10-31T02:40:59;11.02;;;4.93;;
37851;SDS011;23691;52.486;4.650;2022-10-31T02:43:40;12.85;;;4.90;;
37851;SDS011;23691;52.486;4.650;2022-10-31T02:46:23;11.63;;;5.07;;
37851;SDS011;23691;52.486;4.650;2022-10-31T02:48:57;10.60;;;5.05;;
37851;SDS011;23691;52.486;4.650;2022-10-31T02:51:29;11.85;;;5.40;;
37851;SDS011;23691;52.486;4.650;2022-10-31T02:54:01;10.40;;;4.88;;
37851;SDS011;23691;52.486;4.650;2022-10-31T02:56:29;9.45;;;4.68;;
37851;SDS011;23691;52.486;4.650;2022-10-31T02:58:59;12.00;;;4.82;;
37851;SDS011;23691;52.486;4.650;2022-10-31T03:06:31;10.38;;;4.90;;
37851;SDS011;23691;52.486;4.650;2022-10-31T03:09:08;13.43;;;4.85;;
37851;SDS011;23691;52.486;4.650;2022-10-31T03:11:46;9.57;;;4.60;;
37851;SDS011;23691;52.486;4.650;2022-10-31T03:14:43;10.75;;;4.88;;
37851;SDS011;23691;52.486;4.650;2022-10-31T03:17:14;9.00;;;4.43;;
37851;SDS011;23691;52.486;4.650;2022-10-31T03:19:50;9.60;;;4.80;;
37851;SDS011;23691;52.486;4.650;2022-10-31T03:22:22;10.98;;;5.00;;
37851;SDS011;23691;52.486;4.650;2022-10-31T03:24:51;10.75;;;4.80;;
37851;SDS011;23691;52.486;4.650;2022-10-31T03:27:21;10.35;;;5.18;;
37851;SDS011;23691;52.486;4.650;2022-10-31T03:29:50;15.15;;;5.03;;
37851;SDS011;23691;52.486;4.650;2022-10-31T03:32:27;10.75;;;5.03;;
37851;SDS011;23691;52.486;4.650;2022-10-31T03:34:59;11.43;;;5.10;;
37851;SDS011;23691;52.486;4.650;2022-10-31T03:37:26;9.18;;;4.75;;
37851;SDS011;23691;52.486;4.650;2022-10-31T03:42:24;10.38;;;4.63;;
37851;SDS011;23691;52.486;4.650;2022-10-31T03:45:06;10.15;;;4.85;;
37851;SDS011;23691;52.486;4.650;2022-10-31T03:47:34;10.73;;;4.82;;
37851;SDS011;23691;52.486;4.650;2022-10-31T03:50:02;9.27;;;4.50;;
37851;SDS011;23691;52.486;4.650;2022-10-31T03:52:36;9.98;;;4.78;;
37851;SDS011;23691;52.486;4.650;2022-10-31T03:55:26;10.02;;;4.63;;
37851;SDS011;23691;52.486;4.650;2022-10-31T04:00:30;10.90;;;4.70;;
37851;SDS011;23691;52.486;4.650;2022-10-31T04:03:01;10.35;;;4.82;;
37851;SDS011;23691;52.486;4.650;2022-10-31T04:05:32;12.40;;;4.70;;
37851;SDS011;23691;52.486;4.650;2022-10-31T04:07:59;10.13;;;5.15;;
37851;SDS011;23691;52.486;4.650;2022-10-31T04:10:30;11.25;;;5.18;;
37851;SDS011;23691;52.486;4.650;2022-10-31T04:15:26;13.02;;;5.10;;
37851;SDS011;23691;52.486;4.650;2022-10-31T04:17:54;14.25;;;5.20;;
37851;SDS011;23691;52.486;4.650;2022-10-31T04:20:34;11.13;;;5.40;;
37851;SDS011;23691;52.486;4.650;2022-10-31T04:23:01;12.20;;;5.47;;
37851;SDS011;23691;52.486;4.650;2022-10-31T04:25:28;11.40;;;5.85;;
37851;SDS011;23691;52.486;4.650;2022-10-31T04:27:54;12.55;;;6.03;;
37851;SDS011;23691;52.486;4.650;2022-10-31T04:30:19;11.98;;;6.05;;
37851;SDS011;23691;52.486;4.650;2022-10-31T04:32:45;11.38;;;5.60;;
37851;SDS011;23691;52.486;4.650;2022-10-31T04:35:13;14.35;;;6.30;;
37851;SDS011;23691;52.486;4.650;2022-10-31T04:37:41;11.10;;;5.75;;
37851;SDS011;23691;52.486;4.650;2022-10-31T04:40:08;11.75;;;5.68;;
37851;SDS011;23691;52.486;4.650;2022-10-31T04:42:34;12.10;;;5.82;;
37851;SDS011;23691;52.486;4.650;2022-10-31T04:44:59;11.25;;;6.03;;
37851;SDS011;23691;52.486;4.650;2022-10-31T04:47:25;12.18;;;6.80;;
37851;SDS011;23691;52.486;4.650;2022-10-31T04:49:50;15.65;;;6.60;;
37851;SDS011;23691;52.486;4.650;2022-10-31T04:52:15;16.20;;;6.68;;
37851;SDS011;23691;52.486;4.650;2022-10-31T04:54:42;12.05;;;6.88;;
37851;SDS011;23691;52.486;4.650;2022-10-31T04:57:07;11.85;;;6.32;;
37851;SDS011;23691;52.486;4.650;2022-10-31T04:59:33;13.70;;;7.15;;
37851;SDS011;23691;52.486;4.650;2022-10-31T05:01:58;11.57;;;6.70;;
37851;SDS011;23691;52.486;4.650;2022-10-31T05:04:24;12.18;;;7.43;;
37851;SDS011;23691;52.486;4.650;2022-10-31T05:06:49;12.98;;;7.50;;
37851;SDS011;23691;52.486;4.650;2022-10-31T05:09:15;13.27;;;8.00;;
37851;SDS011;23691;52.486;4.650;2022-10-31T05:11:41;14.18;;;7.85;;
37851;SDS011;23691;52.486;4.650;2022-10-31T05:14:06;13.68;;;8.13;;
37851;SDS011;23691;52.486;4.650;2022-10-31T05:16:31;15.20;;;7.97;;
37851;SDS011;23691;52.486;4.650;2022-10-31T05:18:57;14.10;;;7.88;;
37851;SDS011;23691;52.486;4.650;2022-10-31T05:21:22;17.58;;;8.40;;
37851;SDS011;23691;52.486;4.650;2022-10-31T05:23:48;13.95;;;7.45;;
37851;SDS011;23691;52.486;4.650;2022-10-31T05:26:14;14.23;;;7.28;;
37851;SDS011;23691;52.486;4.650;2022-10-31T05:28:39;13.13;;;7.30;;
37851;SDS011;23691;52.486;4.650;2022-10-31T05:31:05;14.65;;;7.53;;
37851;SDS011;23691;52.486;4.650;2022-10-31T05:33:30;14.23;;;7.07;;
37851;SDS011;23691;52.486;4.650;2022-10-31T05:35:55;15.18;;;7.50;;
37851;SDS011;23691;52.486;4.650;2022-10-31T05:38:21;15.52;;;7.68;;
37851;SDS011;23691;52.486;4.650;2022-10-31T05:40:46;16.67;;;8.10;;
37851;SDS011;23691;52.486;4.650;2022-10-31T05:43:12;14.77;;;7.90;;
37851;SDS011;23691;52.486;4.650;2022-10-31T05:45:37;14.38;;;8.35;;
37851;SDS011;23691;52.486;4.650;2022-10-31T05:48:02;14.00;;;8.25;;
37851;SDS011;23691;52.486;4.650;2022-10-31T05:50:29;14.27;;;8.52;;
37851;SDS011;23691;52.486;4.650;2022-10-31T05:53:00;16.33;;;8.57;;
37851;SDS011;23691;52.486;4.650;2022-10-31T05:55:28;18.92;;;9.82;;
37851;SDS011;23691;52.486;4.650;2022-10-31T05:57:55;18.42;;;10.20;;
37851;SDS011;23691;52.486;4.650;2022-10-31T06:00:22;18.42;;;10.18;;
37851;SDS011;23691;52.486;4.650;2022-10-31T06:02:49;18.65;;;10.73;;
37851;SDS011;23691;52.486;4.650;2022-10-31T06:05:14;19.88;;;11.10;;
37851;SDS011;23691;52.486;4.650;2022-10-31T06:07:41;20.23;;;10.68;;
37851;SDS011;23691;52.486;4.650;2022-10-31T06:10:07;19.83;;;11.68;;
37851;SDS011;23691;52.486;4.650;2022-10-31T06:12:35;20.17;;;11.95;;
37851;SDS011;23691;52.486;4.650;2022-10-31T06:15:06;22.23;;;12.07;;
37851;SDS011;23691;52.486;4.650;2022-10-31T06:17:35;22.58;;;12.70;;
37851;SDS011;23691;52.486;4.650;2022-10-31T06:20:02;21.67;;;12.77;;
37851;SDS011;23691;52.486;4.650;2022-10-31T06:22:29;18.63;;;12.27;;
37851;SDS011;23691;52.486;4.650;2022-10-31T06:24:54;20.83;;;13.50;;
37851;SDS011;23691;52.486;4.650;2022-10-31T06:27:20;23.10;;;14.02;;
37851;SDS011;23691;52.486;4.650;2022-10-31T06:29:45;22.90;;;14.48;;
37851;SDS011;23691;52.486;4.650;2022-10-31T06:32:11;21.88;;;13.82;;
37851;SDS011;23691;52.486;4.650;2022-10-31T06:34:37;23.40;;;14.27;;
37851;SDS011;23691;52.486;4.650;2022-10-31T06:37:03;22.63;;;14.00;;
37851;SDS011;23691;52.486;4.650;2022-10-31T06:39:31;23.83;;;14.52;;
37851;SDS011;23691;52.486;4.650;2022-10-31T06:41:57;24.98;;;15.52;;
37851;SDS011;23691;52.486;4.650;2022-10-31T06:44:22;23.35;;;15.50;;
37851;SDS011;23691;52.486;4.650;2022-10-31T06:46:48;27.23;;;16.42;;
37851;SDS011;23691;52.486;4.650;2022-10-31T06:49:13;24.77;;;16.70;;
37851;SDS011;23691;52.486;4.650;2022-10-31T06:51:39;29.75;;;17.00;;
37851;SDS011;23691;52.486;4.650;2022-10-31T06:54:04;28.70;;;16.35;;
37851;SDS011;23691;52.486;4.650;2022-10-31T06:56:30;25.75;;;16.38;;
37851;SDS011;23691;52.486;4.650;2022-10-31T06:58:55;24.17;;;15.88;;
37851;SDS011;23691;52.486;4.650;2022-10-31T07:01:20;27.60;;;16.30;;
37851;SDS011;23691;52.486;4.650;2022-10-31T07:03:47;26.40;;;16.25;;
37851;SDS011;23691;52.486;4.650;2022-10-31T07:06:12;26.55;;;16.48;;
37851;SDS011;23691;52.486;4.650;2022-10-31T07:08:38;25.73;;;16.70;;
37851;SDS011;23691;52.486;4.650;2022-10-31T07:11:03;26.50;;;17.10;;
37851;SDS011;23691;52.486;4.650;2022-10-31T07:13:29;27.45;;;16.35;;
37851;SDS011;23691;52.486;4.650;2022-10-31T07:15:58;27.25;;;16.55;;
37851;SDS011;23691;52.486;4.650;2022-10-31T07:18:28;27.20;;;17.42;;
37851;SDS011;23691;52.486;4.650;2022-10-31T07:20:54;27.83;;;17.52;;
37851;SDS011;23691;52.486;4.650;2022-10-31T07:23:19;27.15;;;17.35;;
37851;SDS011;23691;52.486;4.650;2022-10-31T07:25:44;27.95;;;17.42;;
37851;SDS011;23691;52.486;4.650;2022-10-31T07:28:10;27.23;;;17.90;;
37851;SDS011;23691;52.486;4.650;2022-10-31T07:30:36;27.77;;;17.73;;
37851;SDS011;23691;52.486;4.650;2022-10-31T07:33:02;26.92;;;17.83;;
37851;SDS011;23691;52.486;4.650;2022-10-31T07:35:28;27.83;;;17.23;;
37851;SDS011;23691;52.486;4.650;2022-10-31T07:37:55;31.25;;;18.10;;
37851;SDS011;23691;52.486;4.650;2022-10-31T07:40:21;25.05;;;17.13;;
37851;SDS011;23691;52.486;4.650;2022-10-31T07:42:48;28.55;;;18.50;;
37851;SDS011;23691;52.486;4.650;2022-10-31T07:45:16;28.52;;;18.40;;
37851;SDS011;23691;52.486;4.650;2022-10-31T07:47:46;25.48;;;17.60;;
37851;SDS011;23691;52.486;4.650;2022-10-31T07:50:15;28.50;;;17.50;;
37851;SDS011;23691;52.486;4.650;2022-10-31T07:52:42;27.67;;;18.30;;
37851;SDS011;23691;52.486;4.650;2022-10-31T07:55:08;28.25;;;17.85;;
37851;SDS011;23691;52.486;4.650;2022-10-31T07:57:34;28.73;;;18.10;;
37851;SDS011;23691;52.486;4.650;2022-10-31T08:00:02;27.80;;;17.20;;
37851;SDS011;23691;52.486;4.650;2022-10-31T08:02:29;32.92;;;17.77;;
37851;SDS011;23691;52.486;4.650;2022-10-31T08:04:54;26.40;;;17.70;;
37851;SDS011;23691;52.486;4.650;2022-10-31T08:07:20;32.80;;;17.60;;
37851;SDS011;23691;52.486;4.650;2022-10-31T08:09:45;26.45;;;17.20;;
37851;SDS011;23691;52.486;4.650;2022-10-31T08:12:11;33.88;;;17.58;;
37851;SDS011;23691;52.486;4.650;2022-10-31T08:14:36;28.27;;;17.45;;
37851;SDS011;23691;52.486;4.650;2022-10-31T08:17:02;31.00;;;17.58;;
37851;SDS011;23691;52.486;4.650;2022-10-31T08:19:27;25.60;;;17.33;;
37851;SDS011;23691;52.486;4.650;2022-10-31T08:21:52;29.38;;;17.35;;
37851;SDS011;23691;52.486;4.650;2022-10-31T08:24:20;28.87;;;17.70;;
37851;SDS011;23691;52.486;4.650;2022-10-31T08:26:46;28.85;;;17.67;;
37851;SDS011;23691;52.486;4.650;2022-10-31T08:29:11;30.63;;;18.65;;
37851;SDS011;23691;52.486;4.650;2022-10-31T08:31:37;31.30;;;19.45;;
37851;SDS011;23691;52.486;4.650;2022-10-31T08:34:03;34.08;;;18.45;;
37851;SDS011;23691;52.486;4.650;2022-10-31T08:36:28;30.75;;;18.70;;
37851;SDS011;23691;52.486;4.650;2022-10-31T08:38:53;30.15;;;17.88;;
37851;SDS011;23691;52.486;4.650;2022-10-31T08:41:19;31.50;;;17.48;;
37851;SDS011;23691;52.486;4.650;2022-10-31T08:43:45;31.48;;;18.77;;
37851;SDS011;23691;52.486;4.650;2022-10-31T08:46:11;31.60;;;17.85;;
37851;SDS011;23691;52.486;4.650;2022-10-31T08:48:36;34.10;;;18.65;;
37851;SDS011;23691;52.486;4.650;2022-10-31T08:51:02;33.78;;;18.70;;
37851;SDS011;23691;52.486;4.650;2022-10-31T08:53:27;30.73;;;17.77;;
37851;SDS011;23691;52.486;4.650;2022-10-31T08:55:54;30.02;;;18.20;;
37851;SDS011;23691;52.486;4.650;2022-10-31T08:58:20;30.25;;;18.48;;
37851;SDS011;23691;52.486;4.650;2022-10-31T09:00:48;30.42;;;18.95;;
37851;SDS011;23691;52.486;4.650;2022-10-31T09:03:16;33.50;;;19.05;;
37851;SDS011;23691;52.486;4.650;2022-10-31T09:05:54;31.58;;;18.92;;
37851;SDS011;23691;52.486;4.650;2022-10-31T09:08:21;34.80;;;18.70;;
37851;SDS011;23691;52.486;4.650;2022-10-31T09:10:46;33.13;;;18.63;;
37851;SDS011;23691;52.486;4.650;2022-10-31T09:13:12;29.90;;;18.25;;
37851;SDS011;23691;52.486;4.650;2022-10-31T09:15:40;33.05;;;18.65;;
37851;SDS011;23691;52.486;4.650;2022-10-31T09:18:07;32.03;;;18.00;;
37851;SDS011;23691;52.486;4.650;2022-10-31T09:20:34;29.70;;;17.55;;
37851;SDS011;23691;52.486;4.650;2022-10-31T09:23:01;31.23;;;16.35;;
37851;SDS011;23691;52.486;4.650;2022-10-31T09:25:44;30.40;;;16.90;;
37851;SDS011;23691;52.486;4.650;2022-10-31T09:28:12;29.23;;;16.15;;
37851;SDS011;23691;52.486;4.650;2022-10-31T09:30:39;25.75;;;15.25;;
37851;SDS011;23691;52.486;4.650;2022-10-31T09:33:06;27.00;;;15.48;;
37851;SDS011;23691;52.486;4.650;2022-10-31T09:35:34;29.65;;;16.65;;
37851;SDS011;23691;52.486;4.650;2022-10-31T09:38:04;27.10;;;15.88;;
37851;SDS011;23691;52.486;4.650;2022-10-31T09:40:34;26.85;;;15.65;;
37851;SDS011;23691;52.486;4.650;2022-10-31T09:43:07;30.38;;;16.00;;
37851;SDS011;23691;52.486;4.650;2022-10-31T09:46:01;26.00;;;14.90;;
37851;SDS011;23691;52.486;4.650;2022-10-31T09:51:15;26.95;;;14.90;;
37851;SDS011;23691;52.486;4.650;2022-10-31T09:56:21;25.08;;;13.90;;
37851;SDS011;23691;52.486;4.650;2022-10-31T09:58:52;25.27;;;13.93;;
37851;SDS011;23691;52.486;4.650;2022-10-31T10:01:26;27.75;;;14.75;;
37851;SDS011;23691;52.486;4.650;2022-10-31T10:06:54;25.95;;;14.15;;
37851;SDS011;23691;52.486;4.650;2022-10-31T10:09:21;28.13;;;14.90;;
37851;SDS011;23691;52.486;4.650;2022-10-31T10:17:50;25.88;;;14.13;;
37851;SDS011;23691;52.486;4.650;2022-10-31T10:25:43;30.02;;;15.07;;
37851;SDS011;23691;52.486;4.650;2022-10-31T10:28:23;22.30;;;13.98;;
37851;SDS011;23691;52.486;4.650;2022-10-31T10:30:58;28.27;;;14.20;;
37851;SDS011;23691;52.486;4.650;2022-10-31T10:33:46;25.45;;;13.35;;
37851;SDS011;23691;52.486;4.650;2022-10-31T10:36:17;26.50;;;13.07;;
37851;SDS011;23691;52.486;4.650;2022-10-31T10:38:58;24.73;;;13.02;;
37851;SDS011;23691;52.486;4.650;2022-10-31T10:41:29;21.67;;;11.68;;
37851;SDS011;23691;52.486;4.650;2022-10-31T10:43:57;22.92;;;11.52;;
37851;SDS011;23691;52.486;4.650;2022-10-31T10:49:40;21.70;;;10.48;;
37851;SDS011;23691;52.486;4.650;2022-10-31T11:00:20;19.45;;;10.60;;
37851;SDS011;23691;52.486;4.650;2022-10-31T11:02:51;21.23;;;10.43;;
37851;SDS011;23691;52.486;4.650;2022-10-31T11:05:25;22.05;;;10.93;;
37851;SDS011;23691;52.486;4.650;2022-10-31T11:07:51;21.58;;;11.10;;
37851;SDS011;23691;52.486;4.650;2022-10-31T11:10:17;27.60;;;10.85;;
37851;SDS011;23691;52.486;4.650;2022-10-31T11:12:44;26.95;;;11.18;;
37851;SDS011;23691;52.486;4.650;2022-10-31T11:15:22;22.30;;;10.77;;
37851;SDS011;23691;52.486;4.650;2022-10-31T11:17:51;24.63;;;11.10;;
37851;SDS011;23691;52.486;4.650;2022-10-31T11:22:45;21.48;;;10.75;;
37851;SDS011;23691;52.486;4.650;2022-10-31T11:25:33;23.25;;;10.68;;
37851;SDS011;23691;52.486;4.650;2022-10-31T11:28:05;18.85;;;9.13;;
37851;SDS011;23691;52.486;4.650;2022-10-31T11:30:44;23.65;;;9.70;;
37851;SDS011;23691;52.486;4.650;2022-10-31T11:33:25;18.25;;;8.70;;
37851;SDS011;23691;52.486;4.650;2022-10-31T11:35:51;16.50;;;7.93;;
37851;SDS011;23691;52.486;4.650;2022-10-31T11:38:20;19.80;;;7.53;;
37851;SDS011;23691;52.486;4.650;2022-10-31T11:40:52;15.73;;;6.80;;
37851;SDS011;23691;52.486;4.650;2022-10-31T11:43:18;16.52;;;7.05;;
37851;SDS011;23691;52.486;4.650;2022-10-31T11:45:44;16.80;;;6.55;;
37851;SDS011;23691;52.486;4.650;2022-10-31T11:48:16;11.80;;;4.97;;
37851;SDS011;23691;52.486;4.650;2022-10-31T11:50:49;15.13;;;5.60;;
37851;SDS011;23691;52.486;4.650;2022-10-31T11:53:23;15.25;;;5.72;;
37851;SDS011;23691;52.486;4.650;2022-10-31T11:58:38;16.50;;;6.78;;
37851;SDS011;23691;52.486;4.650;2022-10-31T12:01:04;16.10;;;6.47;;
37851;SDS011;23691;52.486;4.650;2022-10-31T12:03:37;17.63;;;6.88;;
37851;SDS011;23691;52.486;4.650;2022-10-31T12:06:20;14.82;;;6.68;;
37851;SDS011;23691;52.486;4.650;2022-10-31T12:08:48;14.50;;;6.63;;
37851;SDS011;23691;52.486;4.650;2022-10-31T12:11:23;14.85;;;6.95;;
37851;SDS011;23691;52.486;4.650;2022-10-31T12:19:05;15.20;;;6.85;;
37851;SDS011;23691;52.486;4.650;2022-10-31T12:29:58;21.60;;;8.70;;
37851;SDS011;23691;52.486;4.650;2022-10-31T12:58:28;28.05;;;13.63;;
37851;SDS011;23691;52.486;4.650;2022-10-31T13:04:02;29.38;;;13.43;;
37851;SDS011;23691;52.486;4.650;2022-10-31T13:06:45;32.47;;;16.47;;
37851;SDS011;23691;52.486;4.650;2022-10-31T13:09:16;30.73;;;16.02;;
37851;SDS011;23691;52.486;4.650;2022-10-31T13:11:46;32.60;;;16.48;;
37851;SDS011;23691;52.486;4.650;2022-10-31T13:14:39;32.33;;;16.30;;
37851;SDS011;23691;52.486;4.650;2022-10-31T13:17:37;30.48;;;16.70;;
37851;SDS011;23691;52.486;4.650;2022-10-31T13:20:18;31.77;;;15.65;;
37851;SDS011;23691;52.486;4.650;2022-10-31T13:22:48;30.40;;;15.82;;
37851;SDS011;23691;52.486;4.650;2022-10-31T13:25:19;33.38;;;16.70;;
37851;SDS011;23691;52.486;4.650;2022-10-31T13:27:56;33.78;;;17.35;;
37851;SDS011;23691;52.486;4.650;2022-10-31T13:30:27;29.80;;;15.63;;
37851;SDS011;23691;52.486;4.650;2022-10-31T13:33:02;32.97;;;16.33;;
37851;SDS011;23691;52.486;4.650;2022-10-31T13:35:52;31.35;;;15.52;;
37851;SDS011;23691;52.486;4.650;2022-10-31T13:38:28;34.00;;;17.45;;
37851;SDS011;23691;52.486;4.650;2022-10-31T13:41:22;31.00;;;17.67;;
37851;SDS011;23691;52.486;4.650;2022-10-31T13:46:48;29.57;;;16.00;;
37851;SDS011;23691;52.486;4.650;2022-10-31T13:49:24;29.52;;;16.00;;
37851;SDS011;23691;52.486;4.650;2022-10-31T13:52:10;32.25;;;17.02;;
37851;SDS011;23691;52.486;4.650;2022-10-31T13:54:40;34.50;;;18.33;;
37851;SDS011;23691;52.486;4.650;2022-10-31T14:00:05;35.20;;;17.10;;
37851;SDS011;23691;52.486;4.650;2022-10-31T14:02:48;32.90;;;16.80;;
37851;SDS011;23691;52.486;4.650;2022-10-31T14:07:53;35.95;;;19.17;;
37851;SDS011;23691;52.486;4.650;2022-10-31T14:13:05;38.45;;;19.83;;
37851;SDS011;23691;52.486;4.650;2022-10-31T14:15:53;36.55;;;19.17;;
37851;SDS011;23691;52.486;4.650;2022-10-31T14:18:22;35.03;;;18.60;;
37851;SDS011;23691;52.486;4.650;2022-10-31T14:20:50;31.00;;;16.83;;
37851;SDS011;23691;52.486;4.650;2022-10-31T14:25:53;32.10;;;15.55;;
37851;SDS011;23691;52.486;4.650;2022-10-31T14:28:20;32.53;;;16.15;;
37851;SDS011;23691;52.486;4.650;2022-10-31T14:30:56;38.00;;;18.27;;
37851;SDS011;23691;52.486;4.650;2022-10-31T14:33:24;33.95;;;17.48;;
37851;SDS011;23691;52.486;4.650;2022-10-31T14:36:09;33.63;;;17.83;;
37851;SDS011;23691;52.486;4.650;2022-10-31T14:41:37;37.78;;;18.45;;
37851;SDS011;23691;52.486;4.650;2022-10-31T14:44:07;37.17;;;19.25;;
37851;SDS011;23691;52.486;4.650;2022-10-31T14:46:53;34.47;;;19.30;;
37851;SDS011;23691;52.486;4.650;2022-10-31T14:52:35;34.28;;;18.15;;
37851;SDS011;23691;52.486;4.650;2022-10-31T14:57:31;37.80;;;18.88;;
37851;SDS011;23691;52.486;4.650;2022-10-31T15:00:03;35.10;;;18.00;;
37851;SDS011;23691;52.486;4.650;2022-10-31T15:05:18;34.97;;;17.00;;
37851;SDS011;23691;52.486;4.650;2022-10-31T15:07:55;34.13;;;17.30;;
37851;SDS011;23691;52.486;4.650;2022-10-31T15:15:20;33.20;;;17.50;;
37851;SDS011;23691;52.486;4.650;2022-10-31T15:17:49;35.42;;;17.25;;
37851;SDS011;23691;52.486;4.650;2022-10-31T15:20:22;36.72;;;17.50;;
37851;SDS011;23691;52.486;4.650;2022-10-31T15:22:49;38.67;;;19.05;;
37851;SDS011;23691;52.486;4.650;2022-10-31T15:25:20;33.55;;;16.63;;
37851;SDS011;23691;52.486;4.650;2022-10-31T15:27:47;31.83;;;17.92;;
37851;SDS011;23691;52.486;4.650;2022-10-31T15:30:18;34.88;;;17.40;;
37851;SDS011;23691;52.486;4.650;2022-10-31T15:32:51;35.17;;;17.42;;
37851;SDS011;23691;52.486;4.650;2022-10-31T15:35:25;34.08;;;15.45;;
37851;SDS011;23691;52.486;4.650;2022-10-31T15:37:53;28.55;;;15.43;;
37851;SDS011;23691;52.486;4.650;2022-10-31T15:40:19;34.83;;;16.02;;
37851;SDS011;23691;52.486;4.650;2022-10-31T15:45:22;32.15;;;14.77;;
37851;SDS011;23691;52.486;4.650;2022-10-31T15:50:40;34.03;;;15.52;;
37851;SDS011;23691;52.486;4.650;2022-10-31T15:53:06;29.67;;;14.60;;
37851;SDS011;23691;52.486;4.650;2022-10-31T15:55:46;35.47;;;15.90;;
37851;SDS011;23691;52.486;4.650;2022-10-31T15:58:24;33.28;;;16.02;;
37851;SDS011;23691;52.486;4.650;2022-10-31T16:01:00;32.33;;;16.30;;
37851;SDS011;23691;52.486;4.650;2022-10-31T16:03:29;38.75;;;16.92;;
37851;SDS011;23691;52.486;4.650;2022-10-31T16:06:03;36.30;;;16.92;;
37851;SDS011;23691;52.486;4.650;2022-10-31T16:10:59;34.28;;;17.08;;
37851;SDS011;23691;52.486;4.650;2022-10-31T16:13:32;33.75;;;17.08;;
37851;SDS011;23691;52.486;4.650;2022-10-31T16:16:02;36.53;;;17.33;;
37851;SDS011;23691;52.486;4.650;2022-10-31T16:18:35;38.20;;;17.70;;
37851;SDS011;23691;52.486;4.650;2022-10-31T16:21:02;36.45;;;16.98;;
37851;SDS011;23691;52.486;4.650;2022-10-31T16:23:28;34.88;;;16.95;;
37851;SDS011;23691;52.486;4.650;2022-10-31T16:25:54;33.10;;;17.50;;
37851;SDS011;23691;52.486;4.650;2022-10-31T16:28:23;36.83;;;17.27;;
37851;SDS011;23691;52.486;4.650;2022-10-31T16:30:51;33.72;;;18.08;;
37851;SDS011;23691;52.486;4.650;2022-10-31T16:33:34;36.78;;;17.35;;
37851;SDS011;23691;52.486;4.650;2022-10-31T16:36:29;35.88;;;17.23;;
37851;SDS011;23691;52.486;4.650;2022-10-31T16:38:52;33.45;;;16.90;;
37851;SDS011;23691;52.486;4.650;2022-10-31T16:41:18;38.50;;;17.67;;
37851;SDS011;23691;52.486;4.650;2022-10-31T16:43:47;34.03;;;17.20;;
37851;SDS011;23691;52.486;4.650;2022-10-31T16:46:14;35.55;;;17.48;;
37851;SDS011;23691;52.486;4.650;2022-10-31T16:48:43;35.03;;;17.27;;
37851;SDS011;23691;52.486;4.650;2022-10-31T16:51:08;38.83;;;18.10;;
37851;SDS011;23691;52.486;4.650;2022-10-31T16:53:34;34.58;;;16.73;;
37851;SDS011;23691;52.486;4.650;2022-10-31T16:56:01;33.05;;;17.13;;
37851;SDS011;23691;52.486;4.650;2022-10-31T16:58:29;40.70;;;18.05;;
37851;SDS011;23691;52.486;4.650;2022-10-31T17:00:57;36.90;;;17.73;;
37851;SDS011;23691;52.486;4.650;2022-10-31T17:03:23;37.03;;;17.70;;
37851;SDS011;23691;52.486;4.650;2022-10-31T17:05:51;40.95;;;18.67;;
37851;SDS011;23691;52.486;4.650;2022-10-31T17:08:16;37.22;;;17.88;;
37851;SDS011;23691;52.486;4.650;2022-10-31T17:10:42;38.72;;;17.75;;
37851;SDS011;23691;52.486;4.650;2022-10-31T17:13:11;39.03;;;18.05;;
37851;SDS011;23691;52.486;4.650;2022-10-31T17:15:44;37.28;;;17.95;;